KLOT/LOT METAR and TAF weather

Enter ICAO airport designator
Station Type Date Time Source
KLOT METAR 2020/01/20 21:55 UTC NOAA

KLOT 202155Z AUTO 27008KT 10SM CLR M03/M06 A3058 RMK AO2 T10281064


Station Type Date Time Source
KLOT Decoded METAR 2020/01/20 21:55 UTC NOAA

Chicago/Romeoville, Lewis University Airport, IL, United States (KLOT) 41-36-30N 088-05-39W
Jan 20, 2020 - 04:55 PM EST / 2020.01.20 2155 UTC
Wind: from the W (270 degrees) at 9 MPH (8 KT):0
Visibility: 10 mile(s):0
Sky conditions: clear
Temperature: 27.0 F (-2.8 C)
Windchill: 17 F (-8 C):1
Dew Point: 20.5 F (-6.4 C)
Relative Humidity: 76%
Pressure (altimeter): 30.58 in. Hg (1035 hPa)
ob: KLOT 202155Z AUTO 27008KT 10SM CLR M03/M06 A3058 RMK AO2 T10281064
cycle: 22

Station Type Date Time Source
KLOT TAF UTC NOAA

Error!

Example: see airport list